createdAt,value
2018-10-18T00:00:24.811Z,73.00
2018-10-18T00:02:53.023Z,68.90
2018-10-18T00:05:21.220Z,67.50
2018-10-18T00:07:49.404Z,71.30
2018-10-18T00:10:17.576Z,73.90
2018-10-18T00:12:45.864Z,73.60
2018-10-18T00:15:14.309Z,74.90
2018-10-18T00:17:46.621Z,75.00
2018-10-18T00:20:15.907Z,77.60
2018-10-18T00:22:44.749Z,78.40
2018-10-18T00:25:13.142Z,78.10
2018-10-18T00:27:41.333Z,77.10
2018-10-18T00:30:12.105Z,83.00
2018-10-18T00:35:08.630Z,83.20
2018-10-18T00:37:37.150Z,85.30
2018-10-18T00:40:05.759Z,83.40
2018-10-18T00:42:33.921Z,85.00
2018-10-18T00:45:02.143Z,84.50
2018-10-18T00:47:30.307Z,83.10
2018-10-18T00:49:58.490Z,86.50
2018-10-18T00:52:26.646Z,90.00
2018-10-18T00:54:54.793Z,86.10
2018-10-18T00:57:22.977Z,90.40
2018-10-18T00:59:51.129Z,87.80
2018-10-18T01:02:19.359Z,86.80
2018-10-18T01:04:47.447Z,89.00
2018-10-18T01:07:15.579Z,90.30
2018-10-18T01:09:43.808Z,89.70
2018-10-18T01:12:11.980Z,90.30
2018-10-18T01:14:40.092Z,90.40
2018-10-18T01:17:08.290Z,92.00
2018-10-18T01:19:37.531Z,92.00
2018-10-18T01:24:34.855Z,92.70
2018-10-18T01:27:03.099Z,93.10
2018-10-18T01:29:31.390Z,93.60
2018-10-18T01:31:59.923Z,91.80
2018-10-18T01:34:28.128Z,88.90
2018-10-18T01:36:56.299Z,91.50
2018-10-18T01:39:24.498Z,87.20
2018-10-18T01:41:52.685Z,87.90
2018-10-18T01:44:20.842Z,90.90
2018-10-18T01:46:49.401Z,92.60
2018-10-18T01:49:17.538Z,91.90
2018-10-18T01:51:45.763Z,91.80
2018-10-18T01:54:13.999Z,92.90
2018-10-18T01:56:42.073Z,92.30
2018-10-18T01:59:10.242Z,92.60
2018-10-18T02:01:38.378Z,93.90
2018-10-18T02:04:06.583Z,95.10
2018-10-18T02:06:34.739Z,96.10
2018-10-18T02:09:03.162Z,95.70
2018-10-18T02:11:31.321Z,93.70
2018-10-18T02:13:59.459Z,94.30
2018-10-18T02:16:27.607Z,93.70
2018-10-18T02:18:55.796Z,95.10
2018-10-18T02:21:23.903Z,93.20
2018-10-18T02:23:52.124Z,94.50
2018-10-18T02:26:20.234Z,96.20
2018-10-18T02:28:48.373Z,97.60
2018-10-18T02:31:16.537Z,96.70
2018-10-18T02:33:44.729Z,96.70
2018-10-18T02:36:12.996Z,96.80
2018-10-18T02:38:41.093Z,94.20
2018-10-18T02:41:09.235Z,95.60
2018-10-18T02:43:37.410Z,97.20
2018-10-18T02:46:05.605Z,96.60
2018-10-18T02:48:33.751Z,98.40
2018-10-18T02:51:01.895Z,98.00
2018-10-18T02:53:30.090Z,98.00
2018-10-18T02:55:58.219Z,94.10
2018-10-18T02:58:26.355Z,96.20
2018-10-18T03:00:54.536Z,97.40
2018-10-18T03:03:22.698Z,96.70
2018-10-18T03:05:50.872Z,96.50
2018-10-18T03:08:19.015Z,97.60
2018-10-18T03:10:47.189Z,96.10
2018-10-18T03:13:15.345Z,96.60
2018-10-18T03:15:43.480Z,97.90
2018-10-18T03:18:11.657Z,97.50
2018-10-18T03:20:39.780Z,97.00
2018-10-18T03:23:08.058Z,98.20
2018-10-18T03:25:36.229Z,99.80
2018-10-18T03:28:04.436Z,99.90
2018-10-18T03:30:32.630Z,99.90
2018-10-18T03:35:28.692Z,99.90
2018-10-18T03:37:56.910Z,99.90
2018-10-18T03:40:25.036Z,99.00
2018-10-18T03:42:53.290Z,98.10
2018-10-18T03:45:21.433Z,99.90
2018-10-18T03:47:49.585Z,99.90
2018-10-18T03:50:17.808Z,99.90
2018-10-18T03:52:45.976Z,99.90
2018-10-18T03:55:14.132Z,99.90
2018-10-18T03:57:42.281Z,99.80
2018-10-18T04:00:10.494Z,99.60
2018-10-18T04:02:38.928Z,99.90
2018-10-18T04:05:07.733Z,99.90
2018-10-18T04:07:35.903Z,99.90
2018-10-18T04:10:04.105Z,96.40
2018-10-18T04:12:32.302Z,97.50
2018-10-18T04:15:00.408Z,99.30
2018-10-18T04:17:28.572Z,99.90
2018-10-18T04:19:56.747Z,99.90
2018-10-18T04:22:24.924Z,99.90
2018-10-18T04:24:53.084Z,99.90
2018-10-18T04:27:21.277Z,99.90
2018-10-18T04:29:49.413Z,99.90
2018-10-18T04:32:17.559Z,99.90
2018-10-18T04:34:45.749Z,99.90
2018-10-18T04:37:14.004Z,99.90
2018-10-18T04:39:42.140Z,99.90
2018-10-18T04:42:10.359Z,99.90
2018-10-18T04:44:38.456Z,99.90
2018-10-18T04:49:34.664Z,99.90
2018-10-18T04:52:02.914Z,99.90
2018-10-18T04:54:31.076Z,99.90
2018-10-18T04:56:59.381Z,99.90
2018-10-18T04:59:27.456Z,99.90
2018-10-18T05:01:55.612Z,99.90
2018-10-18T05:04:23.857Z,99.90
2018-10-18T05:06:52.066Z,99.90
2018-10-18T05:09:20.203Z,99.90
2018-10-18T05:11:48.400Z,99.90
2018-10-18T05:14:16.594Z,99.90
2018-10-18T05:16:44.780Z,98.30
2018-10-18T05:19:13.197Z,97.30
2018-10-18T05:21:41.331Z,96.70
2018-10-18T05:24:09.532Z,96.10
2018-10-18T05:26:37.673Z,96.20
2018-10-18T05:29:05.827Z,95.10
2018-10-18T05:31:34.069Z,95.30
2018-10-18T05:34:02.231Z,92.80
2018-10-18T05:36:30.419Z,92.30
2018-10-18T05:38:58.595Z,92.90
2018-10-18T05:41:26.777Z,90.80
2018-10-18T05:43:54.946Z,89.80
2018-10-18T05:46:23.089Z,89.30
2018-10-18T05:48:51.249Z,91.20
2018-10-18T05:51:19.409Z,91.00
2018-10-18T05:53:47.643Z,90.10
2018-10-18T05:56:15.794Z,88.30
2018-10-18T05:58:44.000Z,88.90
2018-10-18T06:01:12.246Z,88.20
2018-10-18T06:03:40.362Z,88.40
2018-10-18T06:06:08.572Z,87.70
2018-10-18T06:08:36.758Z,85.90
2018-10-18T06:11:17.148Z,83.70
2018-10-18T06:13:45.349Z,86.10
2018-10-18T06:16:13.557Z,87.90
2018-10-18T06:18:41.756Z,87.40
2018-10-18T06:21:09.984Z,88.60
2018-10-18T06:23:38.405Z,88.50
2018-10-18T06:26:06.678Z,87.00
2018-10-18T06:28:34.902Z,90.10
2018-10-18T06:31:03.368Z,90.90
2018-10-18T06:33:31.548Z,91.90
2018-10-18T06:35:59.820Z,91.40
2018-10-18T06:38:28.224Z,90.10
2018-10-18T06:40:56.418Z,90.60
2018-10-18T06:43:24.584Z,91.60
2018-10-18T06:45:52.799Z,90.70
2018-10-18T06:48:21.054Z,91.30
2018-10-18T06:50:49.245Z,92.60
2018-10-18T06:53:17.718Z,93.30
2018-10-18T06:55:45.900Z,93.90
2018-10-18T06:58:14.106Z,94.60
2018-10-18T07:00:42.340Z,93.60
2018-10-18T07:03:10.570Z,93.90
2018-10-18T07:05:38.822Z,93.60
2018-10-18T07:08:07.032Z,92.80
2018-10-18T07:10:35.236Z,94.50
2018-10-18T07:13:03.502Z,95.10
2018-10-18T07:15:31.716Z,95.50
2018-10-18T07:17:59.924Z,95.30
2018-10-18T07:20:28.039Z,96.20
2018-10-18T07:22:56.200Z,96.40
2018-10-18T07:25:24.473Z,95.60
2018-10-18T07:27:52.591Z,95.90
2018-10-18T07:30:20.869Z,95.90
2018-10-18T07:32:48.984Z,97.20
2018-10-18T07:35:17.161Z,97.30
2018-10-18T07:37:45.336Z,97.70
2018-10-18T07:40:15.000Z,99.40
2018-10-18T07:42:43.171Z,98.60
2018-10-18T07:45:12.412Z,99.30
2018-10-18T07:47:40.870Z,98.30
2018-10-18T07:50:09.357Z,97.30
2018-10-18T07:52:37.851Z,96.90
2018-10-18T07:55:07.094Z,95.90
2018-10-18T07:57:36.176Z,98.30
2018-10-18T08:00:05.765Z,98.90
2018-10-18T08:02:33.922Z,98.50
2018-10-18T08:05:02.131Z,99.90
2018-10-18T08:07:30.311Z,99.90
2018-10-18T08:09:58.552Z,99.90
2018-10-18T08:12:26.656Z,99.90
2018-10-18T08:14:54.926Z,99.90
2018-10-18T08:17:23.196Z,99.90
2018-10-18T08:19:51.322Z,99.90
2018-10-18T08:22:19.501Z,99.90
2018-10-18T08:24:47.704Z,99.90
2018-10-18T08:27:15.905Z,99.90
2018-10-18T08:29:44.187Z,99.90
2018-10-18T08:32:12.384Z,99.90
2018-10-18T08:34:40.618Z,99.90
2018-10-18T08:37:08.877Z,99.90
2018-10-18T08:39:37.221Z,99.90
2018-10-18T08:42:05.800Z,99.90
2018-10-18T08:44:34.058Z,99.90
2018-10-18T08:47:02.305Z,99.90
2018-10-18T08:49:30.556Z,99.90
2018-10-18T08:51:58.851Z,99.90
2018-10-18T08:54:27.047Z,99.90
2018-10-18T08:56:55.249Z,99.90
2018-10-18T08:59:23.495Z,99.90
2018-10-18T09:01:51.640Z,99.90
2018-10-18T09:04:19.863Z,99.90
2018-10-18T09:06:48.084Z,99.90
2018-10-18T09:09:16.362Z,99.90
2018-10-18T09:11:44.452Z,99.50
2018-10-18T09:14:12.642Z,99.40
2018-10-18T09:16:40.932Z,98.60
2018-10-18T09:19:09.260Z,99.90
2018-10-18T09:21:37.448Z,99.90
2018-10-18T09:24:05.982Z,99.10
2018-10-18T09:26:34.156Z,97.80
2018-10-18T09:29:02.317Z,97.40
2018-10-18T09:31:30.531Z,97.10
2018-10-18T09:33:58.677Z,95.60
2018-10-18T09:36:26.967Z,96.50
2018-10-18T09:38:55.137Z,93.10
2018-10-18T09:41:23.360Z,92.80
2018-10-18T09:43:57.115Z,91.30
2018-10-18T09:46:25.459Z,90.60
2018-10-18T09:48:53.670Z,85.10
2018-10-18T09:51:21.865Z,87.70
2018-10-18T09:53:50.092Z,80.80
2018-10-18T09:56:18.352Z,80.60
2018-10-18T09:58:46.451Z,77.50
2018-10-18T10:02:22.743Z,76.80
2018-10-18T10:04:50.925Z,69.20
2018-10-18T10:07:19.150Z,66.30
2018-10-18T10:09:47.346Z,67.90
2018-10-18T10:12:15.566Z,63.10
2018-10-18T10:14:43.752Z,61.90
2018-10-18T10:17:12.081Z,60.20
2018-10-18T10:19:40.208Z,54.40
2018-10-18T10:22:08.445Z,54.60
2018-10-18T10:24:36.766Z,55.00
2018-10-18T10:27:04.936Z,50.40
2018-10-18T10:29:33.107Z,44.20
2018-10-18T10:32:01.370Z,44.60
2018-10-18T10:34:29.784Z,45.70
2018-10-18T10:36:58.058Z,42.10
2018-10-18T10:39:26.160Z,41.90
2018-10-18T10:41:54.419Z,37.20
2018-10-18T10:44:22.621Z,37.80
2018-10-18T10:46:50.790Z,38.00
2018-10-18T10:49:19.121Z,33.00
2018-10-18T10:51:47.233Z,32.50
2018-10-18T10:54:15.472Z,32.70
2018-10-18T10:56:43.609Z,32.90
2018-10-18T10:59:20.775Z,30.10
2018-10-18T11:01:48.967Z,27.80
2018-10-18T11:04:17.191Z,27.00
2018-10-18T11:06:45.380Z,27.10
2018-10-18T11:09:13.594Z,26.10
2018-10-18T11:11:41.740Z,24.70
2018-10-18T11:14:09.974Z,23.60
2018-10-18T11:16:38.068Z,22.10
2018-10-18T11:19:06.224Z,21.80
2018-10-18T11:21:34.440Z,22.20
2018-10-18T11:24:02.592Z,20.80
2018-10-18T11:26:30.736Z,21.20
2018-10-18T11:28:58.909Z,19.60
2018-10-18T11:31:27.072Z,18.10
2018-10-18T11:33:55.232Z,17.80
2018-10-18T11:36:23.395Z,15.10
2018-10-18T11:38:51.610Z,13.90
2018-10-18T11:41:19.798Z,14.50
2018-10-18T11:43:48.003Z,14.20
2018-10-18T11:46:16.164Z,14.40
2018-10-18T11:48:44.368Z,11.60
2018-10-18T11:51:12.582Z,12.40
2018-10-18T11:53:40.900Z,11.40
2018-10-18T11:56:09.193Z,7.00
2018-10-18T11:58:37.308Z,4.80
2018-10-18T12:01:05.631Z,4.90
2018-10-18T12:03:33.780Z,7.10
2018-10-18T12:06:01.944Z,6.50
2018-10-18T12:08:30.132Z,5.20
2018-10-18T12:10:58.342Z,2.80
2018-10-18T12:13:26.484Z,3.00
2018-10-18T12:15:54.650Z,3.40
2018-10-18T12:18:22.828Z,3.00
2018-10-18T12:20:51.001Z,1.80
2018-10-18T12:23:19.302Z,1.00
2018-10-18T12:25:47.337Z,1.00
2018-10-18T12:28:15.541Z,1.00
2018-10-18T12:30:43.720Z,1.00
2018-10-18T12:33:11.961Z,1.00
2018-10-18T12:38:09.190Z,1.00
2018-10-18T12:40:37.433Z,1.00
2018-10-18T12:43:05.540Z,1.00
2018-10-18T12:45:33.775Z,1.00
2018-10-18T12:48:01.944Z,1.00
2018-10-18T12:50:31.568Z,1.00
2018-10-18T12:52:59.776Z,1.00
2018-10-18T12:55:28.023Z,1.00
2018-10-18T12:57:56.240Z,1.00
2018-10-18T13:00:24.477Z,1.00
2018-10-18T13:02:52.696Z,1.00
2018-10-18T13:05:20.907Z,1.00
2018-10-18T13:07:49.076Z,1.00
2018-10-18T13:10:17.289Z,1.00
2018-10-18T13:12:45.588Z,1.00
2018-10-18T13:15:13.601Z,1.00
2018-10-18T13:17:41.753Z,1.00
2018-10-18T13:20:10.703Z,1.00
2018-10-18T13:22:39.124Z,1.00
2018-10-18T13:25:08.890Z,1.00
2018-10-18T13:27:37.916Z,1.00
2018-10-18T13:30:08.381Z,1.00
2018-10-18T13:32:36.817Z,1.00
2018-10-18T13:35:05.729Z,1.00
2018-10-18T13:37:34.210Z,1.00
2018-10-18T13:40:04.237Z,1.00
2018-10-18T13:42:32.520Z,1.00
2018-10-18T13:45:00.845Z,1.00
2018-10-18T13:47:29.045Z,1.00
2018-10-18T13:49:57.229Z,1.00
2018-10-18T13:52:25.401Z,1.00
2018-10-18T13:54:53.579Z,1.00
2018-10-18T13:57:21.770Z,1.00
2018-10-18T14:00:01.145Z,1.00
2018-10-18T14:02:29.301Z,1.00
2018-10-18T14:04:58.501Z,1.00
2018-10-18T14:07:26.984Z,1.00
2018-10-18T14:09:55.141Z,1.00
2018-10-18T14:12:23.354Z,1.00
2018-10-18T14:14:51.659Z,1.00
2018-10-18T14:17:20.557Z,1.00
2018-10-18T14:19:48.631Z,1.00
2018-10-18T14:22:16.872Z,1.00
2018-10-18T14:24:45.156Z,1.00
2018-10-18T14:27:13.694Z,1.00
2018-10-18T14:29:41.958Z,1.00
2018-10-18T14:32:10.691Z,1.00
2018-10-18T14:34:39.044Z,1.00
2018-10-18T14:37:07.577Z,1.00
2018-10-18T14:39:35.992Z,1.00
2018-10-18T14:42:04.409Z,1.00
2018-10-18T14:44:33.276Z,1.00
2018-10-18T14:47:03.157Z,1.00
2018-10-18T14:49:32.468Z,1.00
2018-10-18T14:52:01.009Z,1.00
2018-10-18T14:54:29.888Z,1.00
2018-10-18T14:56:59.051Z,1.00
2018-10-18T14:59:28.275Z,1.00
2018-10-18T15:01:57.347Z,1.00
2018-10-18T15:04:26.913Z,1.00
2018-10-18T15:06:55.577Z,1.00
2018-10-18T15:09:24.998Z,1.00
2018-10-18T15:11:53.301Z,1.00
2018-10-18T15:14:21.519Z,1.00
2018-10-18T15:16:49.667Z,1.00
2018-10-18T15:19:18.133Z,1.00
2018-10-18T15:21:46.298Z,1.00
2018-10-18T15:24:14.488Z,1.00
2018-10-18T15:26:42.929Z,1.00
2018-10-18T15:29:10.923Z,1.00
2018-10-18T15:31:40.017Z,1.00
2018-10-18T15:34:08.427Z,1.00
2018-10-18T15:36:36.573Z,1.00
2018-10-18T15:39:07.484Z,1.00
2018-10-18T15:41:36.156Z,1.00
2018-10-18T15:44:04.451Z,1.00
2018-10-18T15:46:32.620Z,1.00
2018-10-18T15:49:00.799Z,1.00
2018-10-18T15:51:28.938Z,1.00
2018-10-18T15:53:57.199Z,1.00
2018-10-18T15:56:25.411Z,1.00
2018-10-18T15:58:53.738Z,1.00
2018-10-18T16:01:21.820Z,1.00
2018-10-18T16:03:50.351Z,1.00
2018-10-18T16:06:18.556Z,1.00
2018-10-18T16:08:46.723Z,1.00
2018-10-18T16:11:14.911Z,1.00
2018-10-18T16:13:42.997Z,1.40
2018-10-18T16:16:11.152Z,2.30
2018-10-18T16:18:39.391Z,2.60
2018-10-18T16:21:07.596Z,2.40
2018-10-18T16:23:35.800Z,2.00
2018-10-18T16:26:04.004Z,3.00
2018-10-18T16:28:32.154Z,3.00
2018-10-18T16:31:00.324Z,3.40
2018-10-18T16:33:28.500Z,4.10
2018-10-18T16:35:56.672Z,4.80
2018-10-18T16:38:24.865Z,5.70
2018-10-18T16:40:53.111Z,6.50
2018-10-18T16:43:21.241Z,6.90
2018-10-18T16:45:49.468Z,8.30
2018-10-18T16:48:17.666Z,8.60
2018-10-18T16:50:45.817Z,10.40
2018-10-18T16:53:14.023Z,11.00
2018-10-18T16:55:42.236Z,11.40
2018-10-18T16:58:10.451Z,12.20
2018-10-18T17:00:38.648Z,14.00
2018-10-18T17:03:06.831Z,15.00
2018-10-18T17:05:35.020Z,15.60
2018-10-18T17:08:03.401Z,16.90
2018-10-18T17:10:31.505Z,17.30
2018-10-18T17:12:59.981Z,17.80
2018-10-18T17:15:28.297Z,19.00
2018-10-18T17:17:56.614Z,21.10
2018-10-18T17:20:24.821Z,21.60
2018-10-18T17:22:52.970Z,22.00
2018-10-18T17:25:21.184Z,21.50
2018-10-18T17:27:49.469Z,22.60
2018-10-18T17:30:17.536Z,23.00
2018-10-18T17:32:45.766Z,23.30
2018-10-18T17:35:13.883Z,24.50
2018-10-18T17:37:42.191Z,24.40
2018-10-18T17:40:10.831Z,23.90
2018-10-18T17:42:38.958Z,25.70
2018-10-18T17:45:08.671Z,26.10
2018-10-18T17:47:36.869Z,27.00
2018-10-18T17:50:05.537Z,27.80
2018-10-18T17:52:34.192Z,29.40
2018-10-18T17:55:02.365Z,29.60
2018-10-18T17:57:30.580Z,31.30
2018-10-18T17:59:58.840Z,32.00
2018-10-18T18:02:26.972Z,32.20
2018-10-18T18:04:55.401Z,33.00
2018-10-18T18:07:23.590Z,34.50
2018-10-18T18:09:51.770Z,36.20
2018-10-18T18:12:19.972Z,37.70
2018-10-18T18:14:48.124Z,37.70
2018-10-18T18:17:16.367Z,38.20
2018-10-18T18:19:44.512Z,39.50
2018-10-18T18:22:12.686Z,39.20
2018-10-18T18:24:40.885Z,42.30
2018-10-18T18:27:09.040Z,43.00
2018-10-18T18:29:37.209Z,43.90
2018-10-18T18:32:05.567Z,43.50
2018-10-18T18:34:33.717Z,43.60
2018-10-18T18:37:01.850Z,45.60
2018-10-18T18:39:30.007Z,49.00
2018-10-18T18:41:58.139Z,49.20
2018-10-18T18:44:26.321Z,50.40
2018-10-18T18:46:54.492Z,49.50
2018-10-18T18:49:22.974Z,53.10
2018-10-18T18:51:51.221Z,53.30
2018-10-18T18:54:19.393Z,53.00
2018-10-18T18:56:47.536Z,54.30
2018-10-18T18:59:15.698Z,55.90
2018-10-18T19:01:43.865Z,56.00
2018-10-18T19:04:12.152Z,55.50
2018-10-18T19:06:40.284Z,55.30
2018-10-18T19:09:09.288Z,57.30
2018-10-18T19:11:37.720Z,58.10
2018-10-18T19:14:06.157Z,59.80
2018-10-18T19:16:34.237Z,60.20
2018-10-18T19:19:02.385Z,60.60
2018-10-18T19:21:30.520Z,61.50
2018-10-18T19:23:58.704Z,61.90
2018-10-18T19:26:26.856Z,63.80
2018-10-18T19:28:55.172Z,64.20
2018-10-18T19:31:23.325Z,64.80
2018-10-18T19:33:51.524Z,66.90
2018-10-18T19:36:19.665Z,65.40
2018-10-18T19:38:47.828Z,67.50
2018-10-18T19:41:15.991Z,67.50
2018-10-18T19:43:44.133Z,67.60
2018-10-18T19:46:12.292Z,68.00
2018-10-18T19:48:40.459Z,69.50
2018-10-18T19:51:08.627Z,69.10
2018-10-18T19:53:36.864Z,68.90
2018-10-18T19:56:05.141Z,69.60
2018-10-18T19:58:33.307Z,67.80
2018-10-18T20:01:01.478Z,69.40
2018-10-18T20:03:29.637Z,70.30
2018-10-18T20:05:57.758Z,69.40
2018-10-18T20:08:25.908Z,70.60
2018-10-18T20:10:54.058Z,71.30
2018-10-18T20:13:22.203Z,70.20
2018-10-18T20:15:50.427Z,70.30
2018-10-18T20:18:18.649Z,71.60
2018-10-18T20:20:46.787Z,71.20
2018-10-18T20:23:14.942Z,66.90
2018-10-18T20:25:43.295Z,70.20
2018-10-18T20:28:11.333Z,69.10
2018-10-18T20:30:39.453Z,76.40
2018-10-18T20:33:07.698Z,69.70
2018-10-18T20:35:35.914Z,71.20
2018-10-18T20:38:04.046Z,72.70
2018-10-18T20:40:32.224Z,75.50
2018-10-18T20:43:00.387Z,74.10
2018-10-18T20:45:34.918Z,73.50
2018-10-18T20:48:03.299Z,74.70
2018-10-18T20:50:31.312Z,73.10
2018-10-18T20:52:59.596Z,72.80
2018-10-18T20:55:27.702Z,73.40
2018-10-18T20:57:55.851Z,70.30
2018-10-18T21:00:24.084Z,71.50
2018-10-18T21:02:52.243Z,71.40
2018-10-18T21:05:20.379Z,70.30
2018-10-18T21:07:48.522Z,69.90
2018-10-18T21:10:16.680Z,70.20
2018-10-18T21:12:44.883Z,73.00
2018-10-18T21:15:13.080Z,73.90
2018-10-18T21:17:41.149Z,73.00
2018-10-18T21:20:09.296Z,74.10
2018-10-18T21:22:37.464Z,74.40
2018-10-18T21:27:33.832Z,73.50
2018-10-18T21:30:01.927Z,71.30
2018-10-18T21:32:30.072Z,71.10
2018-10-18T21:34:58.214Z,67.60
2018-10-18T21:37:26.332Z,68.20
2018-10-18T21:39:54.483Z,70.30
2018-10-18T21:42:22.662Z,69.90
2018-10-18T21:44:52.191Z,71.60
2018-10-18T21:47:20.372Z,71.10
2018-10-18T21:49:48.525Z,71.10
2018-10-18T21:52:16.661Z,70.90
2018-10-18T21:54:44.793Z,71.20
2018-10-18T21:57:13.061Z,70.20
2018-10-18T21:59:41.096Z,72.00
2018-10-18T22:02:09.211Z,71.20
2018-10-18T22:04:37.333Z,71.50
2018-10-18T22:07:05.718Z,71.40
2018-10-18T22:09:33.915Z,69.10
2018-10-18T22:12:02.097Z,69.00
2018-10-18T22:14:30.267Z,69.10
2018-10-18T22:16:58.456Z,69.30
2018-10-18T22:19:26.546Z,70.10
2018-10-18T22:21:54.707Z,70.10
2018-10-18T22:24:22.860Z,67.00
2018-10-18T22:26:51.005Z,67.90
2018-10-18T22:29:19.133Z,66.90
2018-10-18T22:31:47.277Z,65.70
2018-10-18T22:34:15.407Z,65.50
2018-10-18T22:36:43.555Z,65.00
2018-10-18T22:39:11.994Z,64.40
2018-10-18T22:41:40.536Z,64.70
2018-10-18T22:44:09.230Z,65.60
2018-10-18T22:46:37.413Z,65.20
2018-10-18T22:49:05.579Z,65.20
2018-10-18T22:51:33.716Z,67.40
2018-10-18T22:54:01.899Z,67.40
2018-10-18T22:56:30.065Z,68.60
2018-10-18T22:58:58.231Z,69.20
2018-10-18T23:01:26.322Z,69.40
2018-10-18T23:03:54.476Z,69.90
2018-10-18T23:06:22.628Z,69.70
2018-10-18T23:08:50.739Z,70.80
2018-10-18T23:11:18.904Z,71.00
2018-10-18T23:13:47.040Z,72.20
2018-10-18T23:16:15.159Z,73.40
2018-10-18T23:18:43.305Z,74.30
2018-10-18T23:21:11.488Z,74.00
2018-10-18T23:23:39.586Z,73.30
2018-10-18T23:26:07.731Z,73.70
2018-10-18T23:28:35.836Z,74.40
2018-10-18T23:31:04.277Z,75.20
2018-10-18T23:33:32.508Z,74.00
2018-10-18T23:36:00.686Z,74.70
2018-10-18T23:38:28.831Z,75.00
2018-10-18T23:40:57.018Z,74.20
2018-10-18T23:43:25.182Z,73.00
2018-10-18T23:45:54.111Z,72.70
2018-10-18T23:48:22.727Z,70.00
2018-10-18T23:50:51.308Z,69.40
2018-10-18T23:53:19.440Z,70.60
2018-10-18T23:55:47.616Z,71.40
2018-10-18T23:58:15.746Z,71.50
